createdAt,value
2023-04-20T00:01:28.503Z,694.83
2023-04-20T00:03:57.101Z,732.75
2023-04-20T00:06:29.522Z,725.85
2023-04-20T00:08:58.993Z,711.95
2023-04-20T00:11:27.994Z,682.58
2023-04-20T00:13:58.753Z,695.50
2023-04-20T00:16:26.814Z,707.33
2023-04-20T00:18:56.118Z,686.60
2023-04-20T00:21:24.466Z,718.83
2023-04-20T00:23:54.143Z,679.42
2023-04-20T00:26:22.187Z,703.58
2023-04-20T00:28:54.491Z,698.47
2023-04-20T00:33:51.958Z,618.92
2023-04-20T00:36:21.921Z,528.58
2023-04-20T00:41:20.312Z,632.08
2023-04-20T00:43:54.504Z,664.88
2023-04-20T00:46:24.051Z,665.08
2023-04-20T00:48:52.731Z,670.70
2023-04-20T00:51:22.315Z,654.45
2023-04-20T00:53:52.135Z,669.97
2023-04-20T00:56:21.639Z,647.42
2023-04-20T00:58:49.740Z,645.58
2023-04-20T01:01:18.361Z,635.03
2023-04-20T01:03:49.313Z,641.42
2023-04-20T01:06:19.152Z,654.05
2023-04-20T01:08:49.786Z,659.95
2023-04-20T01:11:19.354Z,651.20
2023-04-20T01:13:48.954Z,649.58
2023-04-20T01:16:18.303Z,636.03
2023-04-20T01:18:49.349Z,591.95
2023-04-20T01:21:19.477Z,650.55
2023-04-20T01:23:49.015Z,634.85
2023-04-20T01:26:20.338Z,659.83
2023-04-20T01:28:51.687Z,646.42
2023-04-20T01:31:21.204Z,582.70
2023-04-20T01:33:49.746Z,498.30
2023-04-20T01:36:17.960Z,263.25
2023-04-20T01:38:50.068Z,242.07
2023-04-20T01:41:19.378Z,197.05
2023-04-20T01:43:49.042Z,167.60
2023-04-20T01:46:17.160Z,139.93
2023-04-20T01:48:45.338Z,121.88
2023-04-20T01:51:13.389Z,117.13
2023-04-20T01:53:43.880Z,112.32
2023-04-20T01:56:13.306Z,112.68
2023-04-20T01:58:41.414Z,106.93
2023-04-20T02:01:09.481Z,91.30
2023-04-20T02:03:38.041Z,86.05
2023-04-20T02:06:08.048Z,88.82
2023-04-20T02:08:37.678Z,89.65
2023-04-20T02:11:06.474Z,75.88
2023-04-20T02:13:39.828Z,55.08
2023-04-20T02:16:08.569Z,69.22
2023-04-20T02:18:38.578Z,64.60
2023-04-20T02:21:08.061Z,67.97
2023-04-20T02:23:36.250Z,74.75
2023-04-20T02:26:04.351Z,119.13
2023-04-20T02:28:33.724Z,127.20
2023-04-20T02:31:07.568Z,7.63
2023-04-20T02:33:35.718Z,4.13
2023-04-20T02:36:03.821Z,4.40
2023-04-20T02:38:33.985Z,4.43
2023-04-20T02:41:02.047Z,5.82
2023-04-20T02:43:31.852Z,5.22
2023-04-20T02:46:00.150Z,5.55
2023-04-20T02:48:30.790Z,8.48
2023-04-20T02:51:00.371Z,5.78
2023-04-20T02:53:34.433Z,5.82
2023-04-20T02:56:22.967Z,5.75
2023-04-20T02:58:57.219Z,4.28
2023-04-20T03:01:42.646Z,4.47
2023-04-20T03:04:16.618Z,6.38
2023-04-20T03:06:54.497Z,4.57
2023-04-20T03:09:30.104Z,4.13
2023-04-20T03:12:03.361Z,5.57
2023-04-20T03:14:49.229Z,6.07
2023-04-20T03:17:21.997Z,4.93
2023-04-20T03:19:53.006Z,4.60
2023-04-20T03:22:22.361Z,5.30
2023-04-20T03:24:54.409Z,6.53
2023-04-20T03:27:43.226Z,5.72
2023-04-20T03:30:15.948Z,4.28
2023-04-20T03:32:47.387Z,6.35
2023-04-20T03:35:18.824Z,8.30
2023-04-20T03:37:48.119Z,6.55
2023-04-20T03:40:17.445Z,7.55
2023-04-20T03:42:45.818Z,9.70
2023-04-20T03:45:15.144Z,4.30
2023-04-20T03:47:43.546Z,6.53
2023-04-20T03:50:13.509Z,9.30
2023-04-20T03:52:42.864Z,11.02
2023-04-20T03:55:12.036Z,5.82
2023-04-20T03:57:47.395Z,8.02
2023-04-20T04:00:16.668Z,8.30
2023-04-20T04:02:48.709Z,9.30
2023-04-20T04:05:27.870Z,7.75
2023-04-20T04:07:58.490Z,6.72
2023-04-20T04:10:28.134Z,9.57
2023-04-20T04:12:56.568Z,12.70
2023-04-20T04:15:27.475Z,7.95
2023-04-20T04:18:03.020Z,11.52
2023-04-20T04:20:34.556Z,11.65
2023-04-20T04:23:05.209Z,5.35
2023-04-20T04:25:40.890Z,10.85
2023-04-20T04:28:11.172Z,13.13
2023-04-20T04:30:49.556Z,12.40
2023-04-20T04:33:19.030Z,11.77
2023-04-20T04:35:50.412Z,11.48
2023-04-20T04:38:19.991Z,12.32
2023-04-20T04:40:53.536Z,13.20
2023-04-20T04:43:24.261Z,12.15
2023-04-20T04:46:09.755Z,16.02
2023-04-20T04:48:42.192Z,13.32
2023-04-20T04:51:11.975Z,10.35
2023-04-20T04:53:46.257Z,7.60
2023-04-20T04:56:18.531Z,8.07
2023-04-20T04:58:48.009Z,7.40
2023-04-20T05:01:17.282Z,10.73
2023-04-20T05:03:48.098Z,12.88
2023-04-20T05:06:16.320Z,15.63
2023-04-20T05:08:48.763Z,9.18
2023-04-20T05:11:18.254Z,12.07
2023-04-20T05:13:49.607Z,12.13
2023-04-20T05:16:19.338Z,7.45
2023-04-20T05:18:47.847Z,9.98
2023-04-20T05:21:15.993Z,10.23
2023-04-20T05:23:46.665Z,11.60
2023-04-20T05:26:16.025Z,11.23
2023-04-20T05:28:44.039Z,12.90
2023-04-20T05:31:12.129Z,9.60
2023-04-20T05:33:40.403Z,9.57
2023-04-20T05:36:12.162Z,12.25
2023-04-20T05:38:41.437Z,10.18
2023-04-20T05:41:13.429Z,11.48
2023-04-20T05:43:42.645Z,10.80
2023-04-20T05:46:10.910Z,11.25
2023-04-20T05:48:40.240Z,6.28
2023-04-20T05:51:09.619Z,7.25
2023-04-20T05:53:38.128Z,6.75
2023-04-20T05:56:07.284Z,10.45
2023-04-20T05:58:38.460Z,7.78
2023-04-20T06:01:08.997Z,11.30
2023-04-20T06:03:38.429Z,8.02
2023-04-20T06:06:08.484Z,12.52
2023-04-20T06:08:36.528Z,9.43
2023-04-20T06:11:05.938Z,7.97
2023-04-20T06:13:36.909Z,12.23
2023-04-20T06:16:10.552Z,7.07
2023-04-20T06:18:39.848Z,9.35
2023-04-20T06:21:11.441Z,9.93
2023-04-20T06:23:40.946Z,8.55
2023-04-20T06:26:10.386Z,15.13
2023-04-20T06:28:42.265Z,7.97
2023-04-20T06:31:10.419Z,9.43
2023-04-20T06:33:38.634Z,8.88
2023-04-20T06:36:08.405Z,8.15
2023-04-20T06:38:36.509Z,13.38
2023-04-20T06:41:06.113Z,9.13
2023-04-20T06:43:34.267Z,13.98
2023-04-20T06:46:06.086Z,9.45
2023-04-20T06:48:35.621Z,14.88
2023-04-20T06:51:05.272Z,8.07
2023-04-20T06:53:35.051Z,13.32
2023-04-20T06:56:05.585Z,10.63
2023-04-20T06:58:34.844Z,7.78
2023-04-20T07:01:06.445Z,8.85
2023-04-20T07:03:35.848Z,7.70
2023-04-20T07:06:05.202Z,9.75
2023-04-20T07:08:34.673Z,9.70
2023-04-20T07:11:05.131Z,10.00
2023-04-20T07:13:34.030Z,9.30
2023-04-20T07:16:02.579Z,10.52
2023-04-20T07:18:35.286Z,7.78
2023-04-20T07:21:04.237Z,9.43
2023-04-20T07:23:33.701Z,11.93
2023-04-20T07:26:02.985Z,10.20
2023-04-20T07:28:31.041Z,7.90
2023-04-20T07:30:59.437Z,9.00
2023-04-20T07:33:27.759Z,12.00
2023-04-20T07:35:59.751Z,9.00
2023-04-20T07:38:29.082Z,6.50
2023-04-20T07:41:05.487Z,8.48
2023-04-20T07:43:33.875Z,6.53
2023-04-20T07:46:02.226Z,8.30
2023-04-20T07:48:31.951Z,8.80
2023-04-20T07:51:02.754Z,10.32
2023-04-20T07:53:31.168Z,8.63
2023-04-20T07:56:00.551Z,9.07
2023-04-20T07:58:29.767Z,10.25
2023-04-20T08:01:00.405Z,7.38
2023-04-20T08:03:28.988Z,11.77
2023-04-20T08:05:58.422Z,7.35
2023-04-20T08:08:31.133Z,10.43
2023-04-20T08:11:00.509Z,4.55
2023-04-20T08:13:29.134Z,7.50
2023-04-20T08:15:58.744Z,9.43
2023-04-20T08:18:30.359Z,9.82
2023-04-20T08:20:59.645Z,8.75
2023-04-20T08:23:29.442Z,9.70
2023-04-20T08:25:58.705Z,8.18
2023-04-20T08:28:33.310Z,8.25
2023-04-20T08:31:02.929Z,6.50
2023-04-20T08:33:32.497Z,7.50
2023-04-20T08:36:01.996Z,7.20
2023-04-20T08:38:34.200Z,8.75
2023-04-20T08:41:03.844Z,6.20
2023-04-20T08:43:33.046Z,8.02
2023-04-20T08:46:02.838Z,9.55
2023-04-20T08:48:36.840Z,32.67
2023-04-20T08:51:08.599Z,65.10
2023-04-20T08:53:38.726Z,18.35
2023-04-20T08:56:09.486Z,22.48
2023-04-20T08:58:38.572Z,110.72
2023-04-20T09:01:07.158Z,243.85
2023-04-20T09:03:39.321Z,161.23
2023-04-20T09:06:17.654Z,18.52
2023-04-20T09:08:48.584Z,7.63
2023-04-20T09:11:25.654Z,6.72
2023-04-20T09:14:04.557Z,8.48
2023-04-20T09:16:35.252Z,10.85
2023-04-20T09:19:03.504Z,7.95
2023-04-20T09:21:33.899Z,7.72
2023-04-20T09:24:06.888Z,8.55
2023-04-20T09:26:37.541Z,5.70
2023-04-20T09:29:16.937Z,9.07
2023-04-20T09:31:46.348Z,6.32
2023-04-20T09:34:16.283Z,6.03
2023-04-20T09:36:51.168Z,6.55
2023-04-20T09:39:22.738Z,5.90
2023-04-20T09:41:54.407Z,14.38
2023-04-20T09:44:23.755Z,131.27
2023-04-20T09:46:54.063Z,284.15
2023-04-20T09:49:23.883Z,327.30
2023-04-20T09:51:53.602Z,110.15
2023-04-20T09:54:24.878Z,17.13
2023-04-20T09:56:58.224Z,162.13
2023-04-20T09:59:27.185Z,56.38
2023-04-20T10:01:56.648Z,118.80
2023-04-20T10:04:26.258Z,4.65
2023-04-20T10:06:57.949Z,6.40
2023-04-20T10:09:28.564Z,5.47
2023-04-20T10:12:13.483Z,6.18
2023-04-20T10:14:41.603Z,79.45
2023-04-20T10:17:11.470Z,7.35
2023-04-20T10:19:41.527Z,5.88
2023-04-20T10:22:11.118Z,6.03
2023-04-20T10:24:41.072Z,4.47
2023-04-20T10:27:19.298Z,5.18
2023-04-20T10:29:47.911Z,4.30
2023-04-20T10:32:26.824Z,5.32
2023-04-20T10:35:05.755Z,7.35
2023-04-20T10:37:36.244Z,4.93
2023-04-20T10:40:10.077Z,5.95
2023-04-20T10:42:44.399Z,4.68
2023-04-20T10:45:13.832Z,4.55
2023-04-20T10:47:45.150Z,6.00
2023-04-20T10:50:19.220Z,6.00
2023-04-20T10:52:49.695Z,5.55
2023-04-20T10:55:26.289Z,7.30
2023-04-20T10:57:55.501Z,6.40
2023-04-20T11:00:30.746Z,5.82
2023-04-20T11:03:00.172Z,6.30
2023-04-20T11:05:30.486Z,5.97
2023-04-20T11:08:02.097Z,6.40
2023-04-20T11:10:43.467Z,7.13
2023-04-20T11:15:55.210Z,6.38
2023-04-20T11:18:23.306Z,5.57
2023-04-20T11:20:53.152Z,6.25
2023-04-20T11:23:21.980Z,5.00
2023-04-20T11:25:59.485Z,7.03
2023-04-20T11:28:34.546Z,6.68
2023-04-20T11:31:02.976Z,6.25
2023-04-20T11:33:34.347Z,5.00
2023-04-20T11:36:04.212Z,8.60
2023-04-20T11:38:34.386Z,6.57
2023-04-20T11:41:07.917Z,3.95
2023-04-20T11:46:15.667Z,5.22
2023-04-20T11:48:44.022Z,5.28
2023-04-20T11:51:13.681Z,6.32
2023-04-20T11:53:43.114Z,5.97
2023-04-20T11:56:12.539Z,7.15
2023-04-20T11:58:40.984Z,6.72
2023-04-20T12:01:17.526Z,6.85
2023-04-20T12:03:48.261Z,6.72
2023-04-20T12:06:17.803Z,5.40
2023-04-20T12:08:48.041Z,4.68
2023-04-20T12:11:18.794Z,6.38
2023-04-20T12:13:48.059Z,6.53
2023-04-20T12:16:17.667Z,5.03
2023-04-20T12:18:47.157Z,6.60
2023-04-20T12:21:16.469Z,6.38
2023-04-20T12:23:46.658Z,7.13
2023-04-20T12:26:16.731Z,7.80
2023-04-20T12:28:48.087Z,5.93
2023-04-20T12:31:17.537Z,6.10
2023-04-20T12:33:45.704Z,5.68
2023-04-20T12:36:14.984Z,5.53
2023-04-20T12:38:43.250Z,5.88
2023-04-20T12:41:16.471Z,7.05
2023-04-20T12:43:47.123Z,5.47
2023-04-20T12:46:17.809Z,7.13
2023-04-20T12:58:00.798Z,4.53
2023-04-20T13:00:31.555Z,6.05
2023-04-20T13:03:01.133Z,4.10
2023-04-20T13:05:32.515Z,4.25
2023-04-20T13:08:01.796Z,3.85
2023-04-20T13:10:32.310Z,6.00
2023-04-20T13:13:02.145Z,5.85
2023-04-20T13:18:06.974Z,5.35
2023-04-20T13:20:37.602Z,5.55
2023-04-20T13:23:06.089Z,7.25
2023-04-20T13:25:35.435Z,4.90
2023-04-20T13:28:04.978Z,5.47
2023-04-20T13:30:34.568Z,4.88
2023-04-20T13:33:05.044Z,3.72
2023-04-20T13:35:36.252Z,6.07
2023-04-20T13:38:06.288Z,3.97
2023-04-20T13:40:35.772Z,5.38
2023-04-20T13:43:05.113Z,4.57
2023-04-20T13:45:34.636Z,4.72
2023-04-20T13:48:03.994Z,3.92
2023-04-20T13:50:32.383Z,3.97
2023-04-20T13:53:02.986Z,3.05
2023-04-20T13:55:31.140Z,5.68
2023-04-20T13:58:00.532Z,4.45
2023-04-20T14:00:30.076Z,5.47
2023-04-20T14:02:59.562Z,8.88
2023-04-20T14:05:29.591Z,4.38
2023-04-20T14:08:01.329Z,7.55
2023-04-20T14:10:30.868Z,27.98
2023-04-20T14:13:01.246Z,22.23
2023-04-20T14:15:30.085Z,5.05
2023-04-20T14:18:01.304Z,10.13
2023-04-20T14:20:32.079Z,64.30
2023-04-20T14:23:00.445Z,20.73
2023-04-20T14:25:30.007Z,124.32
2023-04-20T14:27:59.391Z,355.60
2023-04-20T14:30:27.462Z,122.55
2023-04-20T14:32:56.790Z,436.08
2023-04-20T14:35:29.539Z,338.33
2023-04-20T14:38:00.073Z,287.35
2023-04-20T14:40:28.195Z,8.77
2023-04-20T14:42:57.514Z,5.72
2023-04-20T14:45:27.102Z,4.78
2023-04-20T14:47:57.285Z,5.93
2023-04-20T14:50:30.083Z,3.45
2023-04-20T14:52:58.107Z,5.53
2023-04-20T14:55:27.355Z,5.15
2023-04-20T14:57:58.314Z,4.47
2023-04-20T15:00:30.645Z,6.20
2023-04-20T15:02:59.674Z,4.30
2023-04-20T15:05:32.839Z,5.03
2023-04-20T15:08:02.454Z,5.65
2023-04-20T15:10:33.654Z,6.45
2023-04-20T15:13:03.682Z,7.65
2023-04-20T15:15:46.897Z,6.35
2023-04-20T15:18:17.931Z,5.32
2023-04-20T15:20:49.852Z,7.18
2023-04-20T15:23:17.868Z,7.07
2023-04-20T15:25:47.151Z,7.13
2023-04-20T15:28:16.688Z,7.65
2023-04-20T15:30:45.826Z,8.80
2023-04-20T15:33:13.967Z,5.82
2023-04-20T15:35:44.472Z,8.00
2023-04-20T15:38:13.825Z,6.38
2023-04-20T15:40:43.372Z,7.68
2023-04-20T15:43:11.392Z,5.82
2023-04-20T15:45:44.206Z,10.70
2023-04-20T15:48:14.389Z,7.95
2023-04-20T15:50:43.754Z,7.45
2023-04-20T15:53:14.350Z,8.70
2023-04-20T15:55:43.906Z,8.02
2023-04-20T15:58:11.993Z,9.05
2023-04-20T16:00:43.002Z,8.02
2023-04-20T16:03:11.416Z,7.40
2023-04-20T16:05:41.065Z,10.98
2023-04-20T16:08:09.148Z,10.20
2023-04-20T16:10:40.944Z,7.70
2023-04-20T16:13:10.255Z,5.07
2023-04-20T16:15:39.901Z,9.93
2023-04-20T16:18:07.976Z,5.70
2023-04-20T16:20:38.386Z,8.60
2023-04-20T16:23:08.617Z,6.25
2023-04-20T16:25:38.440Z,7.15
2023-04-20T16:28:08.597Z,7.70
2023-04-20T16:30:38.513Z,8.68
2023-04-20T16:33:07.853Z,8.70
2023-04-20T16:35:38.391Z,7.80
2023-04-20T16:38:10.233Z,7.78
2023-04-20T16:40:40.261Z,9.70
2023-04-20T16:43:09.717Z,8.55
2023-04-20T16:45:40.225Z,8.18
2023-04-20T16:48:09.930Z,9.57
2023-04-20T16:50:41.551Z,11.43
2023-04-20T16:53:10.819Z,11.68
2023-04-20T16:55:40.080Z,12.48
2023-04-20T16:58:09.689Z,12.60
2023-04-20T17:00:38.091Z,13.02
2023-04-20T17:03:10.416Z,11.45
2023-04-20T17:05:41.845Z,11.77
2023-04-20T17:08:11.783Z,10.93
2023-04-20T17:10:41.134Z,13.27
2023-04-20T17:13:11.776Z,10.98
2023-04-20T17:15:42.608Z,13.02
2023-04-20T17:18:10.824Z,10.98
2023-04-20T17:20:41.453Z,10.52
2023-04-20T17:23:10.912Z,11.23
2023-04-20T17:25:40.660Z,8.00
2023-04-20T17:28:11.524Z,8.45
2023-04-20T17:30:40.981Z,10.73
2023-04-20T17:33:12.224Z,8.63
2023-04-20T17:35:41.721Z,13.32
2023-04-20T17:38:09.787Z,9.07
2023-04-20T17:40:39.512Z,13.23
2023-04-20T17:43:07.564Z,10.40
2023-04-20T17:45:38.262Z,8.50
2023-04-20T17:48:07.199Z,10.77
2023-04-20T17:50:38.079Z,12.50
2023-04-20T17:53:08.461Z,10.88
2023-04-20T17:55:37.966Z,9.98
2023-04-20T17:58:05.998Z,9.93
2023-04-20T18:00:36.476Z,15.25
2023-04-20T18:03:05.973Z,9.93
2023-04-20T18:05:35.635Z,14.98
2023-04-20T18:08:05.196Z,10.73
2023-04-20T18:10:34.226Z,11.30
2023-04-20T18:13:03.467Z,11.45
2023-04-20T18:15:31.636Z,9.45
2023-04-20T18:18:00.954Z,12.02
2023-04-20T18:20:33.808Z,9.30
2023-04-20T18:23:04.450Z,9.45
2023-04-20T18:25:32.549Z,10.55
2023-04-20T18:28:01.856Z,11.63
2023-04-20T18:30:30.336Z,13.00
2023-04-20T18:32:58.828Z,11.50
2023-04-20T18:35:28.308Z,10.68
2023-04-20T18:37:58.921Z,14.13
2023-04-20T18:40:28.146Z,10.32
2023-04-20T18:42:56.296Z,12.55
2023-04-20T18:45:26.022Z,11.20
2023-04-20T18:47:57.184Z,14.45
2023-04-20T18:50:25.549Z,12.93
2023-04-20T18:52:54.817Z,14.82
2023-04-20T18:55:25.644Z,10.77
2023-04-20T18:57:54.073Z,13.18
2023-04-20T19:00:24.403Z,13.68
2023-04-20T19:02:55.150Z,16.42
2023-04-20T19:05:25.251Z,14.70
2023-04-20T19:07:55.595Z,13.45
2023-04-20T19:10:26.623Z,11.98
2023-04-20T19:12:56.989Z,18.83
2023-04-20T19:15:26.262Z,16.88
2023-04-20T19:17:56.564Z,14.65
2023-04-20T19:20:26.902Z,14.55
2023-04-20T19:22:56.432Z,17.52
2023-04-20T19:25:27.137Z,14.02
2023-04-20T19:27:57.813Z,18.75
2023-04-20T19:30:27.400Z,17.45
2023-04-20T19:32:56.956Z,20.05
2023-04-20T19:35:26.432Z,18.58
2023-04-20T19:37:56.910Z,15.02
2023-04-20T19:40:28.356Z,15.45
2023-04-20T19:42:58.947Z,13.52
2023-04-20T19:45:28.327Z,17.15
2023-04-20T19:47:59.121Z,20.48
2023-04-20T19:50:28.646Z,23.40
2023-04-20T19:52:58.784Z,19.27
2023-04-20T19:55:29.474Z,21.38
2023-04-20T19:57:58.835Z,20.88
2023-04-20T20:00:28.077Z,19.92
2023-04-20T20:02:57.464Z,16.50
2023-04-20T20:05:26.839Z,18.27
2023-04-20T20:07:56.119Z,23.35
2023-04-20T20:10:25.623Z,20.33
2023-04-20T20:12:56.191Z,23.42
2023-04-20T20:15:24.680Z,20.70
2023-04-20T20:17:55.555Z,17.70
2023-04-20T20:20:23.847Z,22.83
2023-04-20T20:22:53.203Z,24.17
2023-04-20T20:25:21.534Z,24.40
2023-04-20T20:27:52.168Z,21.55
2023-04-20T20:30:22.920Z,23.52
2023-04-20T20:32:52.270Z,24.40
2023-04-20T20:35:22.596Z,22.52
2023-04-20T20:37:55.524Z,18.92
2023-04-20T20:40:25.329Z,21.85
2023-04-20T20:42:54.640Z,23.58
2023-04-20T20:45:25.749Z,19.02
2023-04-20T20:47:55.756Z,16.80
2023-04-20T20:50:26.375Z,17.33
2023-04-20T20:52:54.810Z,27.95
2023-04-20T20:55:24.325Z,22.33
2023-04-20T20:57:52.384Z,24.98
2023-04-20T21:00:22.022Z,22.88
2023-04-20T21:02:52.869Z,16.65
2023-04-20T21:05:22.807Z,25.33
2023-04-20T21:07:52.440Z,22.10
2023-04-20T21:10:20.536Z,20.13
2023-04-20T21:12:50.180Z,22.45
2023-04-20T21:15:18.665Z,19.23
2023-04-20T21:17:49.233Z,15.55
2023-04-20T21:20:20.205Z,21.98
2023-04-20T21:22:50.680Z,21.63
2023-04-20T21:25:18.729Z,15.90
2023-04-20T21:27:49.388Z,22.52
2023-04-20T21:30:18.702Z,24.73
2023-04-20T21:32:46.767Z,24.38
2023-04-20T21:35:16.073Z,22.38
2023-04-20T21:37:47.937Z,23.52
2023-04-20T21:40:17.224Z,25.33
2023-04-20T21:42:46.493Z,27.60
2023-04-20T21:45:15.876Z,31.05
2023-04-20T21:47:46.697Z,21.25
2023-04-20T21:50:16.205Z,24.63
2023-04-20T21:52:46.863Z,29.55
2023-04-20T21:55:16.042Z,25.83
2023-04-20T21:57:45.259Z,23.88
2023-04-20T22:00:15.464Z,23.70
2023-04-20T22:02:45.834Z,26.55
2023-04-20T22:05:15.258Z,24.23
2023-04-20T22:07:45.067Z,22.30
2023-04-20T22:10:15.886Z,29.20
2023-04-20T22:12:45.165Z,20.63
2023-04-20T22:15:15.758Z,17.40
2023-04-20T22:17:46.369Z,19.80
2023-04-20T22:20:19.081Z,29.85
2023-04-20T22:22:49.911Z,23.63
2023-04-20T22:25:20.536Z,24.00
2023-04-20T22:27:49.777Z,30.98
2023-04-20T22:30:18.091Z,34.42
2023-04-20T22:32:47.460Z,26.30
2023-04-20T22:35:16.830Z,25.48
2023-04-20T22:37:47.354Z,29.02
2023-04-20T22:40:15.433Z,28.05
2023-04-20T22:42:47.225Z,30.05
2023-04-20T22:45:16.596Z,34.38
2023-04-20T22:47:47.293Z,36.08
2023-04-20T22:50:15.774Z,25.85
2023-04-20T22:52:43.926Z,30.77
2023-04-20T22:55:12.613Z,30.10
2023-04-20T22:57:43.094Z,29.17
2023-04-20T23:00:14.491Z,34.22
2023-04-20T23:02:44.033Z,33.60
2023-04-20T23:05:12.268Z,30.33
2023-04-20T23:07:41.699Z,32.65
2023-04-20T23:10:11.878Z,39.17
2023-04-20T23:12:42.300Z,31.50
2023-04-20T23:15:12.825Z,26.90
2023-04-20T23:17:43.430Z,36.42
2023-04-20T23:20:14.342Z,32.65
2023-04-20T23:22:42.461Z,39.20
2023-04-20T23:25:11.355Z,33.17
2023-04-20T23:27:39.448Z,21.92
2023-04-20T23:30:09.683Z,42.25
2023-04-20T23:32:41.286Z,28.25
2023-04-20T23:35:11.204Z,39.65
2023-04-20T23:37:41.708Z,33.65
2023-04-20T23:40:11.298Z,37.08
2023-04-20T23:42:41.848Z,36.22
2023-04-20T23:45:11.245Z,35.25
2023-04-20T23:47:41.276Z,38.58
2023-04-20T23:50:10.557Z,27.25
2023-04-20T23:52:38.694Z,48.80
2023-04-20T23:55:09.247Z,41.30
2023-04-20T23:57:38.475Z,35.05
